Latest Weather Observations for Cape Nelson

IDV60801

Issued at 9:32 pm EDT Monday 20 February 2017 (issued every 30 minutes, with the page automatically refreshed every 10 minutes)

About weather observations | Map of weather stations | Latest weather observations for VIC | Other Formats
Station Details ID: 090184 Name: CAPE NELSON LIGHTHOUSE Lat: -38.43 Lon: 141.54 Height: 45.4 m
Data from the previous 72 hours. | See also: Recent months at Cape Nelson
Date/Time
EDT
Temp
°C
App
Temp
°C
Dew
Point
°C
Rel
Hum
%
Delta-T
°C
Wind Press
QNH
hPa
Press
MSL
hPa
Rain since
9am
mm
Dir  Spd
km/h
Gust
km/h
Spd
kts
Gust
kts
20/09:30pm 14.6 11.8 8.5 67 3.1 S 13 20 7 11 1019.3 1019.2 0.2
20/09:00pm 14.5 12.1 8.5 67 3.0 SE 11 17 6 9 1019.0 1018.9 0.2
20/08:30pm 14.8 11.5 8.1 64 3.4 S 15 22 8 12 1018.7 1018.6 0.2
20/08:00pm 15.2 11.5 8.0 62 3.6 S 17 22 9 12 1018.4 1018.3 0.2
20/07:30pm 15.6 11.7 9.3 66 3.3 S 20 28 11 15 1018.1 1018.0 0.2
20/07:00pm 15.6 11.7 8.6 63 3.6 S 19 28 10 15 1017.6 1017.5 0.2
20/06:30pm 15.8 13.1 8.8 63 3.6 SSE 13 20 7 11 1017.4 1017.3 0.2
20/06:00pm 16.4 12.9 8.9 61 3.9 SSE 17 28 9 15 1017.3 1017.2 0.2
20/05:30pm 15.9 12.7 8.6 62 3.7 SSE 15 26 8 14 1017.0 1016.9 0.2
20/05:00pm 17.0 14.4 9.4 61 4.0 NE 13 22 7 12 1016.8 1016.7 0.2
20/04:30pm 17.3 14.1 8.4 56 4.6 E 15 28 8 15 1016.6 1016.5 0.2
20/04:00pm 17.5 14.4 8.9 57 4.5 E 15 28 8 15 1016.7 1016.6 0.2
20/03:30pm 16.8 13.9 9.5 62 3.8 SSE 15 28 8 15 1016.6 1016.5 0.2
20/03:00pm 17.7 14.9 10.1 61 4.0 NE 15 33 8 18 1016.6 1016.5 0.2
20/02:30pm 16.9 14.0 9.8 63 3.7 ESE 15 26 8 14 1016.6 1016.5 0.2
20/02:00pm 16.0 12.3 10.1 68 3.1 SSE 20 32 11 17 1016.8 1016.7 0.2
20/01:44pm 15.9 10.1 9.3 65 3.4 S 30 43 16 23 1016.7 1016.6 0.2
20/01:30pm 17.1 13.7 9.0 59 4.2 NE 17 24 9 13 1016.5 1016.4 0.2
20/01:00pm 18.1 15.4 10.2 60 4.2 NNE 15 24 8 13 1016.5 1016.4 0.2
20/12:30pm 17.6 14.4 9.8 60 4.1 ESE 17 32 9 17 1016.6 1016.5 0.0
20/12:00pm 16.4 13.0 9.3 63 3.7 SSE 17 24 9 13 1016.6 1016.5 0.0
20/11:30am 16.2 12.9 9.4 64 3.5 SSE 17 30 9 16 1016.6 1016.5 0.0
20/11:00am 15.4 12.0 9.3 67 3.1 SE 17 30 9 16 1016.4 1016.3 0.0
20/10:30am 14.2 12.5 9.8 75 2.3 NNE 9 19 5 10 1016.4 1016.3 0.0
20/10:00am 14.2 11.3 9.6 74 2.4 NNE 15 26 8 14 1016.1 1016.0 0.0
20/09:30am 14.8 10.8 9.0 68 3.0 SSE 20 32 11 17 1015.8 1015.7 0.0
20/09:00am 14.5 9.8 7.8 64 3.3 SSE 22 37 12 20 1015.6 1015.5 2.2
20/08:30am 14.4 10.3 8.8 69 2.8 S 20 43 11 23 1015.4 1015.3 2.2
20/08:00am 14.4 10.5 8.8 69 2.8 SE 19 33 10 18 1014.6 1014.5 2.2
20/07:30am 14.3 10.2 8.5 68 2.9 S 20 33 11 18 1014.3 1014.2 2.2
20/07:00am 14.3 9.3 8.0 66 3.1 S 24 41 13 22 1014.0 1013.9 2.2
20/06:30am 14.5 9.7 8.7 68 2.9 S 24 39 13 21 1013.7 1013.6 2.2
20/06:25am 14.4 8.3 8.1 66 3.2 S 30 48 16 26 1013.6 1013.5 2.2
20/06:00am 14.4 10.0 9.0 70 2.8 S 22 41 12 22 1013.3 1013.2 2.2
20/05:30am 14.2 8.6 8.6 69 2.8 S 28 48 15 26 1013.5 1013.4 2.2
20/05:09am 14.4 8.0 8.4 67 3.0 S 32 50 17 27 1013.3 1013.2 2.2
20/05:00am 14.5 8.6 9.1 70 2.8 S 30 44 16 24 1013.3 1013.2 2.2
20/04:30am 14.4 8.8 8.8 69 2.8 S 28 48 15 26 1013.3 1013.2 2.2
20/04:14am 14.4 8.8 8.8 69 2.8 S 28 46 15 25 1013.2 1013.1 2.2
20/04:00am 14.2 7.6 8.4 68 2.9 S 33 48 18 26 1013.2 1013.1 2.2
20/03:38am 14.1 8.0 8.3 68 2.9 S 30 48 16 26 1013.1 1013.0 2.2
20/03:30am 14.2 8.2 8.6 69 2.8 S 30 44 16 24 1013.2 1013.1 2.2
20/03:04am 14.3 8.7 8.7 69 2.8 S 28 46 15 25 1013.0 1012.9 2.2
20/03:00am 14.4 9.6 8.8 69 2.8 S 24 41 13 22 1013.1 1013.0 2.2
20/02:34am 14.3 8.4 9.1 71 2.7 S 30 48 16 26 1013.2 1013.1 2.2
20/02:30am 14.2 8.6 8.8 70 2.7 S 28 41 15 22 1013.1 1013.0 2.2
20/02:18am 14.1 8.4 8.3 68 2.9 S 28 48 15 26 1013.2 1013.1 2.2
20/02:00am 14.3 8.8 9.1 71 2.7 S 28 41 15 22 1013.3 1013.2 2.2
20/01:30am 14.0 8.4 8.6 70 2.7 S 28 56 15 30 1013.3 1013.2 2.2
20/01:03am 13.8 8.2 8.8 72 2.5 S 28 46 15 25 1013.3 1013.2 2.2
20/01:00am 14.2 9.2 9.4 73 2.5 S 26 43 14 23 1013.1 1013.0 2.2
20/12:30am 14.0 9.8 9.8 76 2.2 SSE 22 37 12 20 1013.1 1013.0 2.2
20/12:00am 13.5 9.9 9.7 78 2.0 ESE 19 37 10 20 1013.3 1013.2 2.2
 
Date/Time
EDT
Temp
°C
App
Temp
°C
Dew
Point
°C
Rel
Hum
%
Delta-T
°C
Wind Press
QNH
hPa
Press
MSL
hPa
Rain since
9am
mm
Dir  Spd
km/h
Gust
km/h
Spd
kts
Gust
kts
19/11:30pm 12.5 5.4 8.2 75 2.1 S 35 67 19 36 1013.2 1013.1 2.2
19/11:20pm 14.2 9.2 9.4 73 2.5 SSE 26 52 14 28 1013.3 1013.2 2.2
19/11:00pm 13.8 9.4 8.8 72 2.5 SSE 22 48 12 26 1013.2 1013.1 2.2
19/10:33pm 14.3 9.0 9.7 74 2.4 S 28 46 15 25 1013.2 1013.1 2.2
19/10:30pm 14.3 9.7 9.7 74 2.4 SSE 24 43 13 23 1013.2 1013.1 2.2
19/10:00pm 13.9 9.0 8.5 70 2.7 SSE 24 44 13 24 1013.0 1012.9 2.2
19/09:30pm 13.6 8.4 8.7 72 2.5 SSE 26 41 14 22 1012.7 1012.6 2.2
19/09:00pm 13.9 9.1 8.7 71 2.6 SSE 24 48 13 26 1012.5 1012.4 2.2
19/08:34pm 13.7 8.8 8.5 71 2.6 SE 24 46 13 25 1012.1 1012.0 2.2
19/08:30pm 13.8 9.4 9.0 73 2.4 SE 22 44 12 24 1012.0 1011.9 2.2
19/08:00pm 13.7 8.5 8.7 72 2.5 SSE 26 46 14 25 1011.7 1011.6 2.2
19/07:30pm 14.1 9.1 7.9 66 3.1 ESE 24 48 13 26 1011.3 1011.2 2.2
19/07:22pm 14.1 9.1 7.9 66 3.1 E 24 50 13 27 1011.4 1011.3 2.2
19/07:00pm 14.2 9.7 8.6 69 2.8 SE 22 35 12 19 1011.0 1010.9 2.2
19/06:30pm 13.9 9.0 8.3 69 2.8 S 24 41 13 22 1011.2 1011.1 2.2
19/06:00pm 13.9 9.4 8.7 71 2.6 SE 22 44 12 24 1010.9 1010.8 2.2
19/05:30pm 13.5 8.8 9.2 75 2.2 S 24 41 13 22 1010.7 1010.6 2.2
19/05:00pm 13.4 8.1 8.5 72 2.5 SSE 26 43 14 23 1010.8 1010.7 1.8
19/04:30pm 13.1 8.4 9.2 77 2.0 SSE 24 50 13 27 1010.6 1010.5 1.8
19/04:01pm 15.0 10.2 8.7 66 3.2 NW 24 57 13 31 1010.8 1010.7 0.2
19/04:00pm 15.2 10.8 8.9 66 3.2 NNW 22 43 12 23 1010.8 1010.7 0.2
19/03:30pm 15.2 10.6 8.0 62 3.6 N 22 39 12 21 1010.5 1010.4 0.2
19/03:00pm 16.2 11.9 7.9 58 4.2 NE 20 35 11 19 1010.6 1010.5 0.2
19/02:30pm 14.8 10.1 7.6 62 3.6 NE 22 35 12 19 1010.5 1010.4 0.2
19/02:00pm 15.7 11.4 8.0 60 3.9 NE 20 32 11 17 1010.5 1010.4 0.2
19/01:30pm 15.6 11.1 7.1 57 4.2 NNE 20 35 11 19 1010.4 1010.3 0.2
19/01:00pm 15.7 10.9 7.2 57 4.2 NNE 22 33 12 18 1010.7 1010.6 0.2
19/12:30pm 15.6 10.7 7.1 57 4.2 NE 22 37 12 20 1010.7 1010.6 0.2
19/12:00pm 15.0 10.8 8.3 64 3.4 NNE 20 35 11 19 1011.1 1011.0 0.2
19/11:30am 14.3 9.0 8.5 68 2.9 S 26 43 14 23 1011.2 1011.1 0.2
19/11:10am 13.7 7.3 8.5 71 2.6 SE 32 57 17 31 1011.3 1011.2 0.2
19/11:00am 14.2 8.9 7.0 62 3.5 ENE 24 52 13 28 1010.9 1010.8 0.2
19/10:30am 14.5 9.8 7.8 64 3.3 ENE 22 33 12 18 1010.9 1010.8 0.2
19/10:00am 13.6 8.4 7.2 65 3.1 NNW 24 37 13 20 1010.5 1010.4 0.2
19/09:53am 13.3 7.1 7.7 69 2.8 WNW 30 48 16 26 1010.5 1010.4 0.2
19/09:30am 13.4 8.7 7.8 69 2.8 SE 22 44 12 24 1010.7 1010.6 0.0
19/09:00am 12.9 8.2 9.4 79 1.8 ESE 24 46 13 25 1010.1 1010.0 5.2
19/08:30am 12.4 6.6 9.6 83 1.4 SSE 30 54 16 29 1010.3 1010.2 5.0
19/08:03am 12.9 8.0 8.6 75 2.2 NNE 24 56 13 30 1009.7 1009.6 4.4
19/08:00am 13.4 9.4 8.9 74 2.3 NNE 20 33 11 18 1009.6 1009.5 4.2
19/07:30am 12.6 8.3 9.4 81 1.6 ENE 22 43 12 23 1009.9 1009.8 4.0
19/07:00am 12.6 9.1 10.3 86 1.2 NE 19 33 10 18 1009.7 1009.6 3.8
19/06:33am 12.0 6.9 9.2 83 1.4 NNE 26 46 14 25 1009.0 1008.9 3.4
19/06:30am 12.3 7.6 9.3 82 1.5 NNW 24 43 13 23 1008.8 1008.7 3.4
19/06:00am 13.5 6.8 9.7 78 2.0 W 35 54 19 29 1009.3 1009.2 3.0
19/05:47am 13.3 8.4 10.1 81 1.7 NW 26 46 14 25 1009.2 1009.1 3.0
19/05:30am 12.4 7.4 9.4 82 1.5 NNE 26 46 14 25 1009.0 1008.9 3.0
19/05:23am 13.2 8.7 10.2 82 1.6 NNW 24 46 13 25 1008.8 1008.7 3.0
19/05:00am 13.7 8.8 9.9 78 2.0 NNW 26 44 14 24 1008.7 1008.6 2.6
19/04:49am 13.6 7.2 8.7 72 2.5 W 32 48 17 26 1009.3 1009.2 2.4
19/04:45am 13.6 6.8 9.1 74 2.3 W 35 50 19 27 1009.6 1009.5 2.4
19/04:35am 14.4 8.8 10.0 75 2.3 NNW 30 52 16 28 1009.2 1009.1 2.4
19/04:30am 14.6 8.7 9.0 69 2.9 NW 30 57 16 31 1009.2 1009.1 2.4
19/04:04am 15.0 8.1 8.7 66 3.2 W 35 54 19 29 1009.5 1009.4 2.4
19/04:00am 14.8 7.4 8.5 66 3.2 W 37 54 20 29 1009.7 1009.6 2.4
19/03:30am 14.8 7.2 9.2 69 2.9 W 39 57 21 31 1009.9 1009.8 2.4
19/03:06am 14.2 7.3 8.8 70 2.7 W 35 57 19 31 1010.1 1010.0 2.4
19/03:00am 13.9 6.8 9.5 75 2.3 W 37 52 20 28 1010.3 1010.2 2.4
19/02:43am 14.5 6.6 9.5 72 2.6 W 41 59 22 32 1010.5 1010.4 2.4
19/02:30am 14.0 6.5 9.6 75 2.3 W 39 54 21 29 1010.8 1010.7 2.4
19/02:00am 14.0 7.0 8.6 70 2.7 W 35 57 19 31 1011.0 1010.9 2.2
19/01:31am 13.4 7.7 9.8 79 1.9 W 30 48 16 26 1011.3 1011.2 2.2
19/01:30am 13.8 8.3 10.4 80 1.8 W 30 43 16 23 1011.4 1011.3 2.2
19/01:00am 12.9 6.1 9.2 78 1.9 W 35 52 19 28 1011.9 1011.8 2.2
19/12:37am 14.2 8.4 9.6 74 2.4 W 30 48 16 26 1011.7 1011.6 2.0
19/12:30am 14.1 7.8 9.7 75 2.3 W 33 46 18 25 1011.9 1011.8 2.0
19/12:00am 14.2 8.6 8.8 70 2.7 W 28 46 15 25 1012.1 1012.0 1.8
 
Date/Time
EDT
Temp
°C
App
Temp
°C
Dew
Point
°C
Rel
Hum
%
Delta-T
°C
Wind Press
QNH
hPa
Press
MSL
hPa
Rain since
9am
mm
Dir  Spd
km/h
Gust
km/h
Spd
kts
Gust
kts
18/11:49pm 14.1 7.7 8.5 69 2.8 W 32 50 17 27 1012.2 1012.1 1.8
18/11:30pm 14.5 7.8 8.2 66 3.2 W 33 50 18 27 1012.2 1012.1 1.8
18/11:00pm 14.5 7.9 8.7 68 2.9 W 33 54 18 29 1012.5 1012.4 1.8
18/10:55pm 14.4 7.3 8.1 66 3.2 W 35 54 19 29 1012.5 1012.4 1.8
18/10:30pm 14.2 6.4 8.2 67 3.0 W 39 48 21 26 1012.8 1012.7 1.8
18/10:00pm 14.1 8.3 8.1 67 3.0 W 28 46 15 25 1012.9 1012.8 1.8
18/09:30pm 13.4 6.8 8.7 73 2.4 W 33 54 18 29 1012.8 1012.7 1.8
18/09:08pm 14.4 8.6 8.1 66 3.2 W 28 46 15 25 1012.6 1012.5 1.8
18/09:00pm 14.3 8.5 7.8 65 3.2 W 28 43 15 23 1012.6 1012.5 1.8
18/08:35pm 14.2 8.0 7.7 65 3.2 W 30 48 16 26 1012.4 1012.3 1.8
18/08:30pm 14.1 8.4 8.3 68 2.9 W 28 39 15 21 1012.4 1012.3 1.8
18/08:00pm 13.1 5.9 7.8 70 2.6 W 35 52 19 28 1012.5 1012.4 1.8
18/07:54pm 13.4 7.8 7.2 66 3.0 WNW 26 50 14 27 1012.4 1012.3 1.8
18/07:30pm 13.9 9.1 8.7 71 2.6 W 24 39 13 21 1012.3 1012.2 1.6
18/07:00pm 14.8 7.6 7.6 62 3.6 W 35 46 19 25 1012.2 1012.1 1.6
18/06:30pm 14.9 8.3 7.7 62 3.6 W 32 44 17 24 1012.2 1012.1 1.6
18/06:00pm 15.3 10.7 8.1 62 3.6 NW 22 35 12 19 1012.1 1012.0 1.6
18/05:30pm 14.9 9.0 7.7 62 3.6 W 28 41 15 22 1012.2 1012.1 1.6
18/05:00pm 14.7 10.9 8.9 68 3.0 WNW 19 24 10 13 1012.4 1012.3 1.6
18/04:30pm 13.0 8.7 7.7 70 2.6 W 20 30 11 16 1012.7 1012.6 1.6
18/04:05pm 14.3 8.7 8.7 69 2.8 W 28 56 15 30 1012.5 1012.4 1.4
18/04:00pm 14.9 9.6 7.0 59 3.9 W 24 35 13 19 1012.6 1012.5 1.4
18/03:30pm 15.7 11.2 6.2 53 4.6 NNW 19 28 10 15 1012.6 1012.5 1.4
18/03:00pm 15.3 9.9 8.1 62 3.6 WNW 26 37 14 20 1012.3 1012.2 1.4
18/02:30pm 16.0 11.7 7.0 55 4.4 NNW 19 33 10 18 1012.6 1012.5 1.4
18/02:00pm 14.6 10.2 7.6 63 3.5 NE 20 37 11 20 1012.3 1012.2 1.4
18/01:30pm 14.5 10.3 8.2 66 3.2 W 20 28 11 15 1012.5 1012.4 1.4
18/01:00pm 13.4 10.5 8.3 71 2.5 E 13 35 7 19 1012.5 1012.4 1.4
18/12:30pm 14.9 8.9 7.0 59 3.9 W 28 37 15 20 1012.4 1012.3 1.4
18/12:00pm 14.4 9.3 7.7 64 3.3 W 24 35 13 19 1012.4 1012.3 1.4
18/11:30am 14.3 10.3 9.1 71 2.7 W 20 28 11 15 1012.6 1012.5 1.4
18/11:00am 11.5 6.4 7.6 77 1.9 WNW 24 32 13 17 1012.7 1012.6 1.4
18/10:36am 13.1 8.5 8.0 71 2.5 NW 22 50 12 27 1012.4 1012.3 1.0
18/10:30am 15.5 10.9 8.0 61 3.8 WNW 22 35 12 19 1012.0 1011.9 0.0
18/10:00am 14.3 8.2 6.6 60 3.7 W 28 41 15 22 1011.9 1011.8 0.0
18/09:53am 14.1 9.5 6.7 61 3.6 NW 20 39 11 21 1011.9 1011.8 0.0
18/09:30am 12.8 9.5 6.4 65 3.1 SSE 13 35 7 19 1011.6 1011.5 0.0
18/09:00am 14.9 11.0 7.0 59 3.9 NNW 17 35 9 19 1011.2 1011.1 2.6
18/08:30am 14.4 9.8 6.3 58 3.9 NW 20 33 11 18 1011.0 1010.9 2.6
18/08:00am 14.1 8.6 6.0 58 3.9 W 24 39 13 21 1010.9 1010.8 2.6
18/07:30am 13.8 9.3 5.9 59 3.8 NW 19 37 10 20 1010.5 1010.4 2.6
18/07:00am 13.7 8.1 5.3 57 3.9 NW 24 41 13 22 1010.0 1009.9 2.6
18/06:30am 13.8 8.1 4.9 55 4.1 WNW 24 39 13 21 1010.0 1009.9 2.6
18/06:00am 13.9 7.8 5.0 55 4.2 W 26 41 14 22 1009.9 1009.8 2.6
18/05:30am 13.8 7.6 4.4 53 4.3 W 26 41 14 22 1009.7 1009.6 2.6
18/05:00am 14.1 7.1 6.2 59 3.8 W 32 43 17 23 1009.7 1009.6 2.6
18/04:40am 14.2 8.1 6.6 60 3.7 WNW 28 48 15 26 1009.7 1009.6 2.6
18/04:30am 13.9 8.2 6.5 61 3.6 WNW 26 44 14 24 1009.7 1009.6 2.6
18/04:17am 14.2 8.1 6.8 61 3.6 W 28 48 15 26 1009.8 1009.7 2.6
18/04:00am 13.8 8.4 8.2 69 2.8 W 26 37 14 20 1010.0 1009.9 2.6
18/03:30am 14.0 8.2 7.8 66 3.1 W 28 41 15 22 1010.1 1010.0 2.6
18/03:21am 13.8 8.2 7.3 65 3.2 W 26 39 14 21 1009.9 1009.8 2.6
18/03:00am 13.7 5.4 7.7 67 3.0 W 41 56 22 30 1010.2 1010.1 2.6
18/02:48am 13.7 7.6 6.8 63 3.3 W 28 54 15 29 1010.1 1010.0 2.6
18/02:30am 13.3 8.7 8.2 71 2.5 WNW 22 39 12 21 1010.1 1010.0 2.6
18/02:03am 13.6 8.6 8.2 70 2.7 NW 24 61 13 33 1010.3 1010.2 2.4
18/02:00am 13.5 9.3 8.4 71 2.6 N 20 39 11 21 1010.2 1010.1 2.4
18/01:30am 13.7 9.4 9.4 75 2.2 W 22 33 12 18 1010.5 1010.4 2.4
18/01:00am 14.7 8.2 8.2 65 3.3 W 32 46 17 25 1010.4 1010.3 1.6
18/12:30am 14.2 8.8 8.2 67 3.0 W 26 39 14 21 1010.8 1010.7 1.6
18/12:00am 14.3 9.5 8.7 69 2.8 W 24 35 13 19 1010.9 1010.8 1.6
 
Date/Time
EDT
Temp
°C
App
Temp
°C
Dew
Point
°C
Rel
Hum
%
Delta-T
°C
Wind Press
QNH
hPa
Press
MSL
hPa
Rain since
9am
mm
Dir  Spd
km/h
Gust
km/h
Spd
kts
Gust
kts
17/11:30pm 14.5 10.2 8.0 65 3.2 NW 20 35 11 19 1010.9 1010.8 1.6
17/11:00pm 14.3 8.8 9.1 71 2.7 W 28 43 15 23 1011.3 1011.2 1.6
17/10:30pm 14.1 9.5 9.5 74 2.4 WNW 24 35 13 19 1011.3 1011.2 1.6
17/10:07pm 15.2 9.1 9.6 69 2.9 W 32 50 17 27 1010.9 1010.8 1.6
17/10:00pm 15.1 9.2 9.2 68 3.0 W 30 44 16 24 1011.0 1010.9 1.6

Other Formats:

Comma delimited format used in spreadsheet applications
http://www.bom.gov.au/fwo/IDV60801/IDV60801.94826.axf

JavaScript Object Notation format (JSON) in row-major order
http://www.bom.gov.au/fwo/IDV60801/IDV60801.94826.json